Denham Springs, LA (70706)

2:55 AM CST on December 10, 2016 (GMT -0600)
richmond place | | Change Station
Active Advisory: Freeze Warning

Elev 85 ft 30.59 °N, 90.93 °W | Updated 22 seconds ago

Clear
Clear
29.5 °F
Feels Like 30 °F
N
0.0
Wind Variable Wind from East

Today
High -- | Low -- °F
--% Chance of Precip.
Yesterday
High -- | Low -- °F
Precip. -- in
Pressure 30.54 in
Visibility 10.0 miles
Clouds Clear
Windchill 30 °F
Dew Point 25 °F
Humidity 83%
Rainfall 0.00 in
Snow Depth Not available.
6:50 AM 5:03 PM
Waxing Gibbous, 82% visible
METAR KBTR 100753Z 01003KT 10SM CLR 01/M04 A3054 RMK AO2 SLP341 T00111039
Pressure 30.54 in
Visibility 10.0 miles
Clouds Clear
Windchill 30 °F
Dew Point 25 °F
Humidity 83%
Rainfall 0.00 in
Snow Depth Not available.
6:50 AM 5:03 PM
Waxing Gibbous, 82% visible
METAR KBTR 100753Z 01003KT 10SM CLR 01/M04 A3054 RMK AO2 SLP341 T00111039

10-Day Weather Forecast

Almanac

Astronomy

Dec. 10, 2016 Rise Set
Actual Time
Civil Twilight
Nautical Twilight
Astronomical Twilight
Moon
Length of Visible Light
Length of Day
Tomorrow will be .
, % of the Moon is Illuminated

Today's Extremes

State Highs State Lows

Community

WunderPhotos

Upload Photos

1,956,538 photos uploaded!

WunderBlog® & News

Nearby

Air Quality

  Air Quality AQ Index Pollutant
Not available.

Snow Depth

Station Depth Elevation

Earthquake Activity

City Distance Mag. Time & Date
Minimum magnitude displayed is 2.5.

Coastal Water Temperatures

Place Temperature

Stations

Nearby Weather Stations

Station Location Temp. Windchill Dew Point Humidity Wind Precip. Elev Updated Type
                   

Watches & Warnings

Freeze Warning
Issued: 9:26 PM CST Dec. 9, 2016 – National Weather Service

... Freeze warning remains in effect until 8 am CST Saturday...

* temperature... lows 25 to 31 degrees.

* Duration... temperatures will fall below freezing after 10 PM CST
tonight in a few spots with many areas at or below freezing by 2
am CST. Temperatures should warm above freezing by 8 am Saturday
morning. Most areas should see about 4 to 6 hours below
freezing.

* Impacts... a freeze may kill or damage tender vegetation.

Precautionary/preparedness actions...

A freeze warning means sub-freezing temperatures are imminent or
highly likely. These conditions will kill crops and other
sensitive vegetation.




926 PM CST Fri Dec 9 2016

... Freeze warning remains in effect until 8 am CST Saturday...

* temperature... lows 25 to 31 degrees.

* Duration... temperatures will fall below freezing after 10 PM CST
tonight in a few spots with many areas at or below freezing by 2
am CST. Temperatures should warm above freezing by 8 am Saturday
morning. Most areas should see about 4 to 6 hours below
freezing.

* Impacts... a freeze may kill or damage tender vegetation.

Precautionary/preparedness actions...

A freeze warning means sub-freezing temperatures are imminent or
highly likely. These conditions will kill crops and other
sensitive vegetation.